createdAt,value
2023-02-28T00:01:30.476Z,102630.56
2023-02-28T00:03:57.576Z,102622.34
2023-02-28T00:06:25.233Z,102631.09
2023-02-28T00:08:51.990Z,102625.34
2023-02-28T00:11:18.703Z,102618.19
2023-02-28T00:13:47.423Z,102623.53
2023-02-28T00:16:18.236Z,102629.06
2023-02-28T00:18:45.478Z,102626.22
2023-02-28T00:21:12.127Z,102624.94
2023-02-28T00:23:38.892Z,102628.28
2023-02-28T00:26:05.975Z,102626.66
2023-02-28T00:28:32.686Z,102622.00
2023-02-28T00:31:00.964Z,102625.03
2023-02-28T00:33:28.506Z,102630.53
2023-02-28T00:36:06.870Z,102628.38
2023-02-28T00:38:33.599Z,102629.97
2023-02-28T00:41:05.287Z,102624.00
2023-02-28T00:43:33.920Z,102627.56
2023-02-28T00:46:00.761Z,102620.03
2023-02-28T00:48:27.421Z,102632.66
2023-02-28T00:50:54.686Z,102636.19
2023-02-28T00:53:21.609Z,102633.13
2023-02-28T00:55:49.041Z,102630.97
2023-02-28T00:58:15.738Z,102640.16
2023-02-28T01:00:42.404Z,102645.34
2023-02-28T01:03:09.086Z,102640.00
2023-02-28T01:05:35.753Z,102640.53
2023-02-28T01:08:02.407Z,102649.41
2023-02-28T01:10:32.163Z,102644.03
2023-02-28T01:12:59.163Z,102645.09
2023-02-28T01:15:26.104Z,102641.53
2023-02-28T01:17:52.814Z,102629.38
2023-02-28T01:20:19.635Z,102634.19
2023-02-28T01:22:46.685Z,102640.41
2023-02-28T01:25:13.790Z,102641.81
2023-02-28T01:27:40.506Z,102638.06
2023-02-28T01:30:10.950Z,102644.44
2023-02-28T01:32:37.636Z,102635.00
2023-02-28T01:35:04.613Z,102636.56
2023-02-28T01:37:31.266Z,102636.41
2023-02-28T01:39:57.927Z,102634.59
2023-02-28T01:42:24.644Z,102634.59
2023-02-28T01:45:23.554Z,102626.03
2023-02-28T01:47:53.496Z,102633.50
2023-02-28T01:50:24.123Z,102629.22
2023-02-28T01:52:52.914Z,102630.84
2023-02-28T01:55:21.336Z,102625.84
2023-02-28T01:58:08.295Z,102626.53
2023-02-28T02:00:53.175Z,102624.56
2023-02-28T02:03:38.108Z,102630.44
2023-02-28T02:06:05.200Z,102629.34
2023-02-28T02:08:31.943Z,102612.56
2023-02-28T02:11:03.918Z,102626.47
2023-02-28T02:13:42.854Z,102628.09
2023-02-28T02:16:24.751Z,102630.59
2023-02-28T02:18:59.485Z,102640.16
2023-02-28T02:21:58.425Z,102628.00
2023-02-28T02:24:51.023Z,102623.53
2023-02-28T02:27:38.914Z,102633.84
2023-02-28T02:30:15.374Z,102631.47
2023-02-28T02:33:21.400Z,102623.91
2023-02-28T02:36:00.158Z,102625.84
2023-02-28T02:39:07.771Z,102626.34
2023-02-28T02:41:54.372Z,102627.34
2023-02-28T02:44:29.701Z,102626.59
2023-02-28T02:47:03.746Z,102636.13
2023-02-28T02:49:33.125Z,102626.31
2023-02-28T02:52:06.648Z,102638.84
2023-02-28T02:54:59.294Z,102633.28
2023-02-28T02:57:33.920Z,102625.25
2023-02-28T03:00:02.579Z,102626.84
2023-02-28T03:02:35.068Z,102621.66
2023-02-28T03:05:24.848Z,102630.22
2023-02-28T03:07:51.581Z,102622.38
2023-02-28T03:10:28.956Z,102630.00
2023-02-28T03:13:07.726Z,102623.94
2023-02-28T03:15:51.989Z,102630.53
2023-02-28T03:18:50.348Z,102624.44
2023-02-28T03:21:33.205Z,102630.34
2023-02-28T03:24:22.824Z,102635.13
2023-02-28T03:27:01.453Z,102623.19
2023-02-28T03:29:36.050Z,102625.16
2023-02-28T03:32:30.731Z,102631.03
2023-02-28T03:35:08.839Z,102624.06
2023-02-28T03:37:39.117Z,102629.56
2023-02-28T03:40:09.788Z,102631.03
2023-02-28T03:42:39.279Z,102633.75
2023-02-28T03:45:12.882Z,102637.97
2023-02-28T03:47:46.436Z,102642.72
2023-02-28T03:50:30.524Z,102645.88
2023-02-28T03:53:12.573Z,102651.38
2023-02-28T03:55:54.928Z,102654.78
2023-02-28T03:58:30.984Z,102646.81
2023-02-28T04:01:08.813Z,102641.53
2023-02-28T04:03:39.470Z,102652.09
2023-02-28T04:06:09.296Z,102639.22
2023-02-28T04:08:35.970Z,102644.19
2023-02-28T04:11:07.923Z,102643.31
2023-02-28T04:13:34.930Z,102643.53
2023-02-28T04:16:01.734Z,102657.53
2023-02-28T04:18:28.443Z,102648.59
2023-02-28T04:20:55.079Z,102648.38
2023-02-28T04:23:21.764Z,102641.63
2023-02-28T04:25:48.442Z,102651.38
2023-02-28T04:28:15.101Z,102659.16
2023-02-28T04:30:41.819Z,102652.16
2023-02-28T04:33:08.511Z,102654.47
2023-02-28T04:35:35.237Z,102656.25
2023-02-28T04:38:01.909Z,102659.25
2023-02-28T04:40:28.646Z,102655.44
2023-02-28T04:42:55.369Z,102643.50
2023-02-28T04:45:22.076Z,102645.81
2023-02-28T04:47:48.725Z,102645.09
2023-02-28T04:50:15.673Z,102647.38
2023-02-28T04:52:42.319Z,102638.06
2023-02-28T04:55:09.184Z,102642.44
2023-02-28T04:57:35.902Z,102639.34
2023-02-28T05:00:07.254Z,102643.00
2023-02-28T05:02:36.381Z,102646.06
2023-02-28T05:05:03.370Z,102650.44
2023-02-28T05:07:30.166Z,102655.22
2023-02-28T05:09:56.838Z,102652.75
2023-02-28T05:12:23.488Z,102649.44
2023-02-28T05:14:50.197Z,102653.59
2023-02-28T05:17:17.315Z,102655.97
2023-02-28T05:19:44.236Z,102660.66
2023-02-28T05:22:17.642Z,102657.75
2023-02-28T05:24:44.405Z,102675.06
2023-02-28T05:27:11.789Z,102665.19
2023-02-28T05:29:42.685Z,102658.72
2023-02-28T05:32:11.714Z,102659.81
2023-02-28T05:34:42.192Z,102667.50
2023-02-28T05:37:16.500Z,102672.25
2023-02-28T05:39:44.560Z,102663.31
2023-02-28T05:42:11.224Z,102671.03
2023-02-28T05:44:37.933Z,102668.13
2023-02-28T05:47:04.676Z,102658.00
2023-02-28T05:49:31.428Z,102665.63
2023-02-28T05:51:58.119Z,102668.13
2023-02-28T05:54:24.746Z,102658.50
2023-02-28T05:56:51.477Z,102666.44
2023-02-28T05:59:18.098Z,102679.13
2023-02-28T06:01:49.194Z,102681.88
2023-02-28T06:04:31.186Z,102674.09
2023-02-28T06:06:58.913Z,102686.38
2023-02-28T06:09:25.972Z,102687.81
2023-02-28T06:11:52.774Z,102697.13
2023-02-28T06:14:20.415Z,102689.69
2023-02-28T06:16:47.743Z,102696.25
2023-02-28T06:19:14.626Z,102692.38
2023-02-28T06:21:41.497Z,102686.25
2023-02-28T06:24:08.827Z,102685.94
2023-02-28T06:26:35.604Z,102691.75
2023-02-28T06:29:02.302Z,102697.16
2023-02-28T06:31:30.141Z,102701.41
2023-02-28T06:33:57.881Z,102697.34
2023-02-28T06:36:24.608Z,102691.69
2023-02-28T06:38:55.525Z,102692.38
2023-02-28T06:41:28.386Z,102706.78
2023-02-28T06:43:55.874Z,102698.03
2023-02-28T06:46:22.683Z,102704.78
2023-02-28T06:48:49.795Z,102707.69
2023-02-28T06:51:21.126Z,102703.13
2023-02-28T06:53:47.887Z,102707.84
2023-02-28T06:56:17.687Z,102716.78
2023-02-28T06:58:49.304Z,102712.72
2023-02-28T07:01:16.325Z,102709.72
2023-02-28T07:03:43.044Z,102712.84
2023-02-28T07:06:09.596Z,102713.25
2023-02-28T07:08:36.915Z,102716.75
2023-02-28T07:11:03.713Z,102718.06
2023-02-28T07:13:30.232Z,102717.31
2023-02-28T07:16:02.339Z,102720.63
2023-02-28T07:18:28.888Z,102725.72
2023-02-28T07:20:55.722Z,102722.44
2023-02-28T07:23:23.155Z,102726.22
2023-02-28T07:25:51.457Z,102726.44
2023-02-28T07:28:17.937Z,102724.84
2023-02-28T07:30:44.464Z,102726.81
2023-02-28T07:33:11.218Z,102726.53
2023-02-28T07:35:37.712Z,102726.75
2023-02-28T07:38:04.649Z,102721.28
2023-02-28T07:40:31.235Z,102726.84
2023-02-28T07:43:00.354Z,102722.31
2023-02-28T07:45:27.696Z,102723.59
2023-02-28T07:47:54.274Z,102723.69
2023-02-28T07:50:20.884Z,102718.94
2023-02-28T07:52:47.687Z,102723.84
2023-02-28T07:55:14.649Z,102729.59
2023-02-28T07:57:41.741Z,102725.91
2023-02-28T08:00:10.914Z,102724.91
2023-02-28T08:02:37.622Z,102720.53
2023-02-28T08:05:04.389Z,102729.69
2023-02-28T08:07:30.875Z,102726.91
2023-02-28T08:09:57.365Z,102730.88
2023-02-28T08:12:23.909Z,102729.00
2023-02-28T08:14:50.363Z,102733.16
2023-02-28T08:17:17.036Z,102725.41
2023-02-28T08:19:46.422Z,102736.84
2023-02-28T08:22:13.146Z,102728.41
2023-02-28T08:24:40.038Z,102731.88
2023-02-28T08:27:06.503Z,102729.06
2023-02-28T08:29:32.990Z,102726.06
2023-02-28T08:31:59.969Z,102739.19
2023-02-28T08:34:26.539Z,102728.03
2023-02-28T08:36:54.089Z,102735.06
2023-02-28T08:39:20.975Z,102741.22
2023-02-28T08:41:51.088Z,102739.72
2023-02-28T08:44:19.995Z,102738.19
2023-02-28T08:46:46.483Z,102735.06
2023-02-28T08:49:13.103Z,102731.03
2023-02-28T08:52:08.620Z,102733.69
2023-02-28T08:54:39.224Z,102715.75
2023-02-28T08:57:05.704Z,102721.19
2023-02-28T08:59:33.296Z,102723.22
2023-02-28T09:02:00.070Z,102727.75
2023-02-28T09:04:26.720Z,102727.97
2023-02-28T09:06:53.380Z,102732.56
2023-02-28T09:09:20.048Z,102735.25
2023-02-28T09:11:46.692Z,102738.28
2023-02-28T09:14:13.359Z,102743.91
2023-02-28T09:16:40.441Z,102736.75
2023-02-28T09:19:07.108Z,102736.22
2023-02-28T09:21:33.763Z,102735.69
2023-02-28T09:24:00.392Z,102728.19
2023-02-28T09:26:34.765Z,102731.41
2023-02-28T09:29:09.488Z,102734.63
2023-02-28T09:31:36.314Z,102729.63
2023-02-28T09:34:04.641Z,102736.25
2023-02-28T09:36:43.603Z,102734.44
2023-02-28T09:39:12.990Z,102735.72
2023-02-28T09:41:52.727Z,102739.09
2023-02-28T09:44:37.899Z,102741.59
2023-02-28T09:47:13.915Z,102738.56
2023-02-28T09:49:47.164Z,102739.03
2023-02-28T09:52:24.982Z,102740.31
2023-02-28T09:54:51.675Z,102739.81
2023-02-28T09:57:24.179Z,102741.38
2023-02-28T10:00:11.107Z,102728.50
2023-02-28T10:03:02.302Z,102736.22
2023-02-28T10:05:34.111Z,102736.47
2023-02-28T10:08:26.232Z,102735.81
2023-02-28T10:10:58.168Z,102739.81
2023-02-28T10:13:35.517Z,102737.31
2023-02-28T10:16:31.809Z,102737.72
2023-02-28T10:19:06.309Z,102741.38
2023-02-28T10:21:39.508Z,102748.13
2023-02-28T10:24:21.348Z,102739.47
2023-02-28T10:26:49.153Z,102749.69
2023-02-28T10:29:16.342Z,102742.53
2023-02-28T10:31:43.447Z,102741.47
2023-02-28T10:34:13.466Z,102745.41
2023-02-28T10:36:45.630Z,102737.13
2023-02-28T10:39:36.096Z,102735.03
2023-02-28T10:42:02.724Z,102738.50
2023-02-28T10:44:29.462Z,102734.41
2023-02-28T10:46:57.502Z,102735.59
2023-02-28T10:49:27.372Z,102723.78
2023-02-28T10:52:00.513Z,102717.13
2023-02-28T10:54:34.747Z,102716.69
2023-02-28T10:57:20.601Z,102716.81
2023-02-28T10:59:52.452Z,102720.53
2023-02-28T11:02:41.905Z,102720.88
2023-02-28T11:05:32.023Z,102722.44
2023-02-28T11:08:19.077Z,102723.28
2023-02-28T11:10:49.078Z,102722.44
2023-02-28T11:13:21.844Z,102721.50
2023-02-28T11:15:58.056Z,102698.28
2023-02-28T11:18:54.685Z,102712.97
2023-02-28T11:21:28.050Z,102714.47
2023-02-28T11:24:17.325Z,102702.56
2023-02-28T11:26:47.351Z,102710.16
2023-02-28T11:29:29.408Z,102714.16
2023-02-28T11:32:17.558Z,102711.16
2023-02-28T11:34:45.852Z,102696.44
2023-02-28T11:37:16.562Z,102703.88
2023-02-28T11:39:44.227Z,102708.34
2023-02-28T11:42:36.567Z,102702.75
2023-02-28T11:45:34.345Z,102705.53
2023-02-28T11:48:11.575Z,102705.22
2023-02-28T11:51:09.222Z,102703.56
2023-02-28T11:53:54.121Z,102703.28
2023-02-28T11:56:47.719Z,102698.53
2023-02-28T11:59:47.411Z,102697.03
2023-02-28T12:02:55.291Z,102689.03
2023-02-28T12:05:44.808Z,102683.06
2023-02-28T12:08:30.019Z,102677.44
2023-02-28T12:11:24.838Z,102675.16
2023-02-28T12:14:14.731Z,102680.19
2023-02-28T12:17:15.511Z,102673.09
2023-02-28T12:20:11.811Z,102654.09
2023-02-28T12:22:53.270Z,102668.31
2023-02-28T12:25:49.051Z,102664.31
2023-02-28T12:28:21.374Z,102660.31
2023-02-28T12:30:57.929Z,102656.19
2023-02-28T12:33:30.593Z,102656.94
2023-02-28T12:35:59.452Z,102650.25
2023-02-28T12:38:48.421Z,102650.97
2023-02-28T12:41:23.510Z,102652.78
2023-02-28T12:44:01.384Z,102647.41
2023-02-28T12:46:40.855Z,102633.22
2023-02-28T12:49:17.538Z,102630.69
2023-02-28T12:51:46.727Z,102632.31
2023-02-28T12:54:29.798Z,102625.34
2023-02-28T12:57:14.858Z,102629.22
2023-02-28T12:59:58.017Z,102619.72
2023-02-28T13:02:51.823Z,102622.56
2023-02-28T13:05:40.938Z,102616.19
2023-02-28T13:08:43.197Z,102611.31
2023-02-28T13:11:25.215Z,102601.66
2023-02-28T13:13:59.233Z,102603.75
2023-02-28T13:16:26.311Z,102597.66
2023-02-28T13:18:53.868Z,102595.47
2023-02-28T13:21:24.605Z,102590.09
2023-02-28T13:23:58.968Z,102581.66
2023-02-28T13:26:39.006Z,102593.22
2023-02-28T13:29:11.768Z,102585.50
2023-02-28T13:32:06.774Z,102582.84
2023-02-28T13:34:34.803Z,102579.56
2023-02-28T13:37:24.065Z,102590.53
2023-02-28T13:39:55.849Z,102587.72
2023-02-28T13:42:31.709Z,102590.53
2023-02-28T13:45:04.327Z,102592.31
2023-02-28T13:47:41.303Z,102590.97
2023-02-28T13:50:26.536Z,102588.91
2023-02-28T13:53:14.346Z,102583.16
2023-02-28T13:55:51.478Z,102588.34
2023-02-28T13:58:32.825Z,102583.00
2023-02-28T14:01:30.323Z,102588.03
2023-02-28T14:04:39.045Z,102574.41
2023-02-28T14:07:07.108Z,102574.56
2023-02-28T14:09:41.550Z,102583.88
2023-02-28T14:12:46.073Z,102578.72
2023-02-28T14:15:34.415Z,102589.22
2023-02-28T14:18:03.609Z,102590.69
2023-02-28T14:20:34.465Z,102588.34
2023-02-28T14:23:31.181Z,102586.53
2023-02-28T14:26:19.789Z,102590.97
2023-02-28T14:29:27.854Z,102586.53
2023-02-28T14:32:51.528Z,102585.19
2023-02-28T14:35:27.114Z,102584.00
2023-02-28T14:37:54.709Z,102586.81
2023-02-28T14:40:33.212Z,102585.00
2023-02-28T14:43:04.457Z,102591.09
2023-02-28T14:45:51.854Z,102597.34
2023-02-28T14:48:54.802Z,102597.63
2023-02-28T14:51:25.699Z,102585.47
2023-02-28T14:53:58.765Z,102587.84
2023-02-28T14:59:26.761Z,102591.84
2023-02-28T15:02:08.306Z,102594.66
2023-02-28T15:04:44.102Z,102593.63
2023-02-28T15:07:15.556Z,102600.28
2023-02-28T15:09:42.389Z,102588.75
2023-02-28T15:12:15.321Z,102597.78
2023-02-28T15:14:44.862Z,102595.44
2023-02-28T15:17:23.174Z,102601.97
2023-02-28T15:19:53.093Z,102599.44
2023-02-28T15:22:30.247Z,102603.16
2023-02-28T15:24:57.425Z,102600.94
2023-02-28T15:27:28.261Z,102598.44
2023-02-28T15:29:58.588Z,102598.44
2023-02-28T15:32:31.392Z,102595.59
2023-02-28T15:34:59.853Z,102591.91
2023-02-28T15:37:34.187Z,102584.78
2023-02-28T15:40:18.225Z,102582.84
2023-02-28T15:43:07.700Z,102583.13
2023-02-28T15:45:39.488Z,102579.44
2023-02-28T15:48:15.315Z,102577.34
2023-02-28T15:50:42.311Z,102565.00
2023-02-28T15:53:22.719Z,102567.84
2023-02-28T15:55:56.316Z,102558.78
2023-02-28T15:58:24.888Z,102560.97
2023-02-28T16:01:26.921Z,102568.22
2023-02-28T16:03:56.776Z,102566.72
2023-02-28T16:06:40.588Z,102563.75
2023-02-28T16:09:10.775Z,102556.31
2023-02-28T16:11:42.972Z,102559.97
2023-02-28T16:14:19.606Z,102554.34
2023-02-28T16:16:49.337Z,102557.72
2023-02-28T16:19:15.961Z,102552.50
2023-02-28T16:21:42.518Z,102555.56
2023-02-28T16:24:09.126Z,102554.91
2023-02-28T16:26:38.238Z,102555.69
2023-02-28T16:29:05.347Z,102561.34
2023-02-28T16:31:36.411Z,102557.22
2023-02-28T16:34:05.916Z,102562.56
2023-02-28T16:36:32.491Z,102568.66
2023-02-28T16:38:59.040Z,102571.53
2023-02-28T16:41:27.609Z,102570.38
2023-02-28T16:43:59.701Z,102565.66
2023-02-28T16:46:35.382Z,102574.72
2023-02-28T16:49:02.050Z,102581.06
2023-02-28T16:51:29.025Z,102581.31
2023-02-28T16:53:55.821Z,102582.97
2023-02-28T16:56:25.694Z,102580.72
2023-02-28T16:58:55.445Z,102583.25
2023-02-28T17:01:22.800Z,102584.94
2023-02-28T17:03:50.348Z,102580.69
2023-02-28T17:06:25.664Z,102588.63
2023-02-28T17:08:52.353Z,102585.44
2023-02-28T17:11:19.677Z,102583.88
2023-02-28T17:13:47.025Z,102590.16
2023-02-28T17:16:29.153Z,102594.66
2023-02-28T17:18:58.860Z,102590.56
2023-02-28T17:21:25.366Z,102600.81
2023-02-28T17:23:51.835Z,102594.22
2023-02-28T17:26:25.268Z,102594.09
2023-02-28T17:28:53.413Z,102594.66
2023-02-28T17:31:20.078Z,102600.63
2023-02-28T17:33:46.548Z,102600.81
2023-02-28T17:36:24.099Z,102610.13
2023-02-28T17:38:51.110Z,102608.53
2023-02-28T17:41:17.602Z,102619.28
2023-02-28T17:43:44.133Z,102618.22
2023-02-28T17:46:22.552Z,102621.97
2023-02-28T17:48:50.509Z,102625.38
2023-02-28T17:51:18.215Z,102625.59
2023-02-28T17:53:45.080Z,102628.78
2023-02-28T17:56:20.651Z,102629.19
2023-02-28T17:58:47.460Z,102633.81
2023-02-28T18:01:14.029Z,102633.28
2023-02-28T18:03:40.936Z,102635.25
2023-02-28T18:06:12.952Z,102627.56
2023-02-28T18:08:39.386Z,102634.38
2023-02-28T18:11:05.905Z,102631.16
2023-02-28T18:13:32.425Z,102629.03
2023-02-28T18:15:58.953Z,102629.56
2023-02-28T18:18:25.439Z,102632.22
2023-02-28T18:20:53.110Z,102624.19
2023-02-28T18:23:21.479Z,102633.47
2023-02-28T18:25:48.255Z,102627.94
2023-02-28T18:28:14.728Z,102625.63
2023-02-28T18:30:41.190Z,102623.47
2023-02-28T18:33:07.772Z,102627.59
2023-02-28T18:35:37.396Z,102619.00
2023-02-28T18:38:24.269Z,102622.78
2023-02-28T18:40:56.484Z,102623.13
2023-02-28T18:43:23.122Z,102616.16
2023-02-28T18:45:50.875Z,102622.78
2023-02-28T18:48:19.510Z,102624.91
2023-02-28T18:50:52.546Z,102623.47
2023-02-28T18:53:19.264Z,102616.13
2023-02-28T18:55:45.888Z,102614.88
2023-02-28T18:58:12.780Z,102625.38
2023-02-28T19:00:39.582Z,102619.16
2023-02-28T19:03:06.287Z,102623.81
2023-02-28T19:05:34.448Z,102620.78
2023-02-28T19:08:02.098Z,102622.00
2023-02-28T19:10:28.747Z,102623.41
2023-02-28T19:12:55.648Z,102630.91
2023-02-28T19:15:22.784Z,102630.03
2023-02-28T19:17:49.424Z,102626.47
2023-02-28T19:20:16.525Z,102630.03
2023-02-28T19:22:44.129Z,102633.38
2023-02-28T19:25:11.051Z,102640.69
2023-02-28T19:27:37.761Z,102633.72
2023-02-28T19:30:06.260Z,102640.50
2023-02-28T19:32:33.502Z,102646.75
2023-02-28T19:35:00.263Z,102637.97
2023-02-28T19:37:27.036Z,102640.81
2023-02-28T19:39:56.799Z,102641.69
2023-02-28T19:42:23.887Z,102643.63
2023-02-28T19:44:50.574Z,102645.78
2023-02-28T19:47:17.202Z,102642.38
2023-02-28T19:49:43.876Z,102644.50
2023-02-28T19:52:13.516Z,102649.47
2023-02-28T19:54:42.241Z,102642.66
2023-02-28T19:57:08.898Z,102646.38
2023-02-28T19:59:39.805Z,102644.00
2023-02-28T20:02:13.653Z,102647.88
2023-02-28T20:04:40.495Z,102647.31
2023-02-28T20:07:07.301Z,102643.94
2023-02-28T20:09:33.983Z,102643.06
2023-02-28T20:12:01.613Z,102644.66
2023-02-28T20:14:28.328Z,102642.50
2023-02-28T20:16:57.147Z,102640.53
2023-02-28T20:19:24.919Z,102647.81
2023-02-28T20:21:51.812Z,102644.22
2023-02-28T20:24:18.632Z,102649.75
2023-02-28T20:26:46.755Z,102637.06
2023-02-28T20:29:13.708Z,102642.06
2023-02-28T20:31:40.602Z,102648.66
2023-02-28T20:34:07.234Z,102647.78
2023-02-28T20:36:33.918Z,102652.75
2023-02-28T20:39:00.748Z,102646.88
2023-02-28T20:41:27.551Z,102650.06
2023-02-28T20:43:58.768Z,102653.09
2023-02-28T20:46:26.174Z,102645.03
2023-02-28T20:48:53.131Z,102654.81
2023-02-28T20:51:20.576Z,102651.75
2023-02-28T20:53:47.360Z,102647.47
2023-02-28T20:56:16.974Z,102647.66
2023-02-28T20:58:45.621Z,102644.44
2023-02-28T21:01:18.415Z,102648.00
2023-02-28T21:03:50.102Z,102641.72
2023-02-28T21:06:19.503Z,102647.03
2023-02-28T21:08:46.291Z,102648.97
2023-02-28T21:11:24.337Z,102649.13
2023-02-28T21:13:51.828Z,102643.53
2023-02-28T21:16:21.525Z,102642.94
2023-02-28T21:18:49.048Z,102650.38
2023-02-28T21:21:19.409Z,102649.28
2023-02-28T21:23:49.094Z,102645.53
2023-02-28T21:26:21.164Z,102648.34
2023-02-28T21:28:51.666Z,102654.72
2023-02-28T21:31:19.489Z,102651.84
2023-02-28T21:33:47.202Z,102653.56
2023-02-28T21:36:19.555Z,102650.50
2023-02-28T21:38:47.596Z,102647.44
2023-02-28T21:41:19.990Z,102653.59
2023-02-28T21:43:47.355Z,102657.69
2023-02-28T21:46:23.000Z,102651.44
2023-02-28T21:48:51.040Z,102661.38
2023-02-28T21:51:20.340Z,102661.00
2023-02-28T21:53:48.189Z,102655.81
2023-02-28T21:56:23.534Z,102649.38
2023-02-28T21:58:51.050Z,102652.38
2023-02-28T22:01:20.876Z,102652.88
2023-02-28T22:03:49.187Z,102648.41
2023-02-28T22:06:20.632Z,102658.16
2023-02-28T22:08:51.570Z,102654.69
2023-02-28T22:11:18.891Z,102654.09
2023-02-28T22:13:46.159Z,102652.13
2023-02-28T22:16:16.062Z,102647.66
2023-02-28T22:18:43.408Z,102648.84
2023-02-28T22:21:12.591Z,102647.06
2023-02-28T22:23:41.295Z,102642.19
2023-02-28T22:26:13.166Z,102641.50
2023-02-28T22:28:40.380Z,102649.75
2023-02-28T22:31:26.619Z,102656.06
2023-02-28T22:33:56.436Z,102662.34
2023-02-28T22:36:23.267Z,102657.44
2023-02-28T22:38:51.261Z,102657.94
2023-02-28T22:41:20.972Z,102656.16
2023-02-28T22:43:54.024Z,102658.81
2023-02-28T22:46:21.985Z,102663.13
2023-02-28T22:48:48.941Z,102660.44
2023-02-28T22:51:21.298Z,102662.72
2023-02-28T22:53:49.727Z,102657.56
2023-02-28T22:56:18.864Z,102657.06
2023-02-28T22:58:50.468Z,102661.81
2023-02-28T23:01:18.802Z,102667.28
2023-02-28T23:03:45.529Z,102661.44
2023-02-28T23:06:20.206Z,102671.38
2023-02-28T23:08:47.375Z,102667.81
2023-02-28T23:11:23.662Z,102664.22
2023-02-28T23:13:59.853Z,102664.44
2023-02-28T23:16:36.814Z,102657.94
2023-02-28T23:19:06.853Z,102649.88
2023-02-28T23:21:34.221Z,102660.75
2023-02-28T23:24:02.795Z,102663.91
2023-02-28T23:26:31.458Z,102661.03
2023-02-28T23:28:59.212Z,102668.50
2023-02-28T23:31:25.923Z,102663.81
2023-02-28T23:33:52.653Z,102670.16
2023-02-28T23:36:19.350Z,102669.28
2023-02-28T23:38:48.266Z,102666.19
2023-02-28T23:41:15.891Z,102670.75
2023-02-28T23:43:42.744Z,102662.91
2023-02-28T23:46:10.581Z,102666.97
2023-02-28T23:48:38.186Z,102659.31
2023-02-28T23:51:09.828Z,102664.28
2023-02-28T23:53:38.605Z,102655.94
2023-02-28T23:56:06.885Z,102648.75
2023-02-28T23:58:34.369Z,102653.53
